Time;durP1;ratioP1;P1;durP2;ratioP2;P2;SDS_P1;SDS_P2;PMS_P1;PMS_P2;Temp;Humidity;BMP_temperature;BMP_pressure;BME280_temperature;BME280_humidity;BME280_pressure;Samples;Min_cycle;Max_cycle;Signal;HPM_P1;HPM_P2
2022/02/23 00:00:44;;;;;;;18.90;2.70;;;;;;;3.82;74.95;99934.73;105548;1273;22564;-58
2022/02/23 00:03:15;;;;;;;13.30;2.00;;;;;;;3.85;74.88;99933.70;105692;1273;22566;-57
2022/02/23 00:05:47;;;;;;;16.90;1.90;;;;;;;3.87;74.87;99928.59;105500;1273;24247;-58
2022/02/23 00:08:18;;;;;;;11.20;2.00;;;;;;;3.89;74.77;99925.05;105902;1273;23940;-59
2022/02/23 00:10:50;;;;;;;12.60;1.60;;;;;;;3.92;74.87;99926.55;105810;1273;24283;-59
2022/02/23 00:13:21;;;;;;;14.30;2.60;;;;;;;3.94;74.80;99920.11;105632;1273;23148;-58
2022/02/23 00:15:54;;;;;;;15.50;3.10;;;;;;;3.95;74.85;99918.16;105510;1273;25499;-58
2022/02/23 00:18:26;;;;;;;15.50;2.70;;;;;;;3.97;74.79;99916.44;105593;1273;22538;-58
2022/02/23 00:20:58;;;;;;;12.60;2.00;;;;;;;4.00;74.79;99918.48;105710;1273;25953;-58
2022/02/23 00:23:29;;;;;;;15.90;2.30;;;;;;;4.02;74.91;99920.14;105457;1273;24342;-58
2022/02/23 00:26:00;;;;;;;20.50;2.50;;;;;;;4.05;74.86;99920.91;105625;1273;22726;-58
2022/02/23 00:28:32;;;;;;;20.20;2.70;;;;;;;4.06;74.83;99916.33;105533;1273;22543;-57
2022/02/23 00:31:04;;;;;;;18.70;2.40;;;;;;;4.08;75.06;99911.67;105512;1273;25333;-57
2022/02/23 00:33:35;;;;;;;10.00;1.80;;;;;;;4.08;75.23;99906.30;105572;1273;24243;-59
2022/02/23 00:36:07;;;;;;;16.10;2.20;;;;;;;4.08;75.44;99908.36;105504;1273;22550;-58
2022/02/23 00:38:39;;;;;;;13.10;2.10;;;;;;;4.08;75.75;99904.66;105474;1273;25331;-57
2022/02/23 00:41:11;;;;;;;15.20;2.60;;;;;;;4.07;76.09;99903.27;105553;1273;24228;-57
2022/02/23 00:43:44;;;;;;;11.90;2.40;;;;;;;4.05;76.28;99896.00;105513;1273;22556;-57
2022/02/23 00:46:17;;;;;;;18.10;3.30;;;;;;;4.04;76.37;99896.02;105621;1273;22531;-57
2022/02/23 00:48:48;;;;;;;12.70;2.50;;;;;;;4.03;76.68;99896.05;105842;1273;23904;-57
2022/02/23 00:51:19;;;;;;;22.30;2.90;;;;;;;4.00;76.78;99897.33;105705;1273;25326;-58
2022/02/23 00:53:51;;;;;;;14.30;3.00;;;;;;;3.99;76.97;99893.35;105735;1273;25230;-56
2022/02/23 00:56:22;;;;;;;15.90;2.00;;;;;;;3.98;77.15;99896.28;105539;1273;22632;-57
2022/02/23 00:58:53;;;;;;;14.00;2.60;;;;;;;3.98;77.23;99900.17;105789;1273;22548;-57
2022/02/23 01:01:25;;;;;;;11.70;2.00;;;;;;;3.97;77.34;99896.23;105978;1271;24254;-58
2022/02/23 01:03:56;;;;;;;15.00;3.00;;;;;;;3.97;77.63;99895.68;105741;1272;25264;-59
2022/02/23 01:06:28;;;;;;;13.40;2.20;;;;;;;3.96;77.62;99892.80;105615;1273;24263;-59
2022/02/23 01:09:00;;;;;;;16.10;2.40;;;;;;;3.95;77.98;99887.93;105652;1273;22550;-59
2022/02/23 01:11:33;;;;;;;11.30;3.20;;;;;;;3.94;77.99;99887.58;105620;1273;22579;-58
2022/02/23 01:14:05;;;;;;;15.00;2.50;;;;;;;3.93;78.20;99881.70;105608;1272;23946;-58
2022/02/23 01:16:36;;;;;;;13.70;3.10;;;;;;;3.92;78.37;99879.74;105767;1273;25037;-57
2022/02/23 01:19:08;;;;;;;17.30;2.90;;;;;;;3.93;78.46;99875.63;105713;1273;22547;-58
2022/02/23 01:21:40;;;;;;;12.60;2.70;;;;;;;3.92;78.63;99875.80;105604;1273;24461;-58
2022/02/23 01:24:12;;;;;;;15.30;2.60;;;;;;;3.92;78.75;99873.06;105812;1273;22543;-59
2022/02/23 01:26:45;;;;;;;12.50;2.30;;;;;;;3.91;78.88;99866.92;105928;1273;22547;-59
2022/02/23 01:29:16;;;;;;;12.50;2.30;;;;;;;3.91;79.04;99866.06;105737;1273;22577;-59
2022/02/23 01:31:47;;;;;;;10.30;2.50;;;;;;;3.89;79.19;99862.64;105687;1273;22756;-60
2022/02/23 01:34:19;;;;;;;17.10;3.50;;;;;;;3.89;79.35;99858.55;105850;1273;22883;-62
2022/02/23 01:36:52;;;;;;;18.30;2.90;;;;;;;3.90;79.61;99851.81;105887;1273;22554;-61
2022/02/23 01:39:24;;;;;;;16.50;3.40;;;;;;;3.90;79.84;99843.14;105602;1273;24241;-63
2022/02/23 01:41:56;;;;;;;16.80;3.00;;;;;;;3.91;79.88;99844.13;105746;1273;22543;-60
2022/02/23 01:44:28;;;;;;;14.00;2.80;;;;;;;3.91;80.00;99835.05;105555;1273;23069;-58
2022/02/23 01:47:00;;;;;;;15.10;3.20;;;;;;;3.92;80.29;99835.73;105572;1273;26749;-60
2022/02/23 01:49:31;;;;;;;14.30;2.20;;;;;;;3.92;80.34;99834.70;105855;1273;25277;-58
2022/02/23 01:52:03;;;;;;;9.90;2.10;;;;;;;3.93;80.58;99839.48;105748;1273;24326;-57
2022/02/23 01:54:35;;;;;;;10.70;2.00;;;;;;;3.93;80.78;99841.70;105676;1273;22561;-57
2022/02/23 01:57:07;;;;;;;8.40;2.10;;;;;;;3.94;80.74;99845.69;105520;1273;22563;-58
2022/02/23 01:59:38;;;;;;;9.00;2.20;;;;;;;3.95;81.05;99845.55;105794;1273;23364;-57
2022/02/23 02:02:11;;;;;;;11.10;2.60;;;;;;;3.97;81.15;99852.60;105525;1273;23090;-58
2022/02/23 02:04:42;;;;;;;9.80;1.60;;;;;;;3.97;81.35;99862.46;105770;1272;22560;-57
2022/02/23 02:07:14;;;;;;;8.10;1.90;;;;;;;3.97;81.66;99860.73;105406;1273;25897;-58
2022/02/23 02:09:48;;;;;;;9.50;2.00;;;;;;;3.97;81.60;99857.49;105526;1273;25369;-57
2022/02/23 02:12:20;;;;;;;10.60;1.50;;;;;;;3.98;81.75;99858.79;105598;1273;22545;-57
2022/02/23 02:14:52;;;;;;;7.70;1.40;;;;;;;3.99;81.91;99865.72;105654;1273;25428;-59
2022/02/23 02:17:23;;;;;;;5.90;1.20;;;;;;;4.00;81.96;99867.67;105526;1273;24250;-58
2022/02/23 02:19:55;;;;;;;8.40;1.30;;;;;;;4.00;82.22;99881.77;105591;1273;24437;-56
2022/02/23 02:22:28;;;;;;;7.60;2.00;;;;;;;4.00;82.20;99875.70;105838;1273;22622;-58
2022/02/23 02:25:01;;;;;;;5.90;0.90;;;;;;;4.00;82.30;99874.91;105673;1273;24350;-58
2022/02/23 02:27:33;;;;;;;11.20;1.20;;;;;;;4.01;82.47;99876.95;105607;1273;22714;-58
2022/02/23 02:30:06;;;;;;;6.50;1.00;;;;;;;4.01;82.59;99884.50;105619;1273;22559;-58
2022/02/23 02:32:37;;;;;;;7.10;1.20;;;;;;;4.02;82.63;99871.07;105626;1273;22719;-58
2022/02/23 02:35:12;;;;;;;9.10;1.20;;;;;;;4.03;82.86;99868.48;105624;1273;24361;-58
2022/02/23 02:37:43;;;;;;;5.40;1.00;;;;;;;4.05;82.91;99873.09;105543;1273;25275;-58
2022/02/23 02:40:16;;;;;;;4.20;0.90;;;;;;;4.07;83.17;99876.67;105526;1273;22573;-58
2022/02/23 02:42:48;;;;;;;5.50;0.80;;;;;;;4.09;83.16;99873.30;105588;1273;22570;-58
2022/02/23 02:45:19;;;;;;;2.80;0.70;;;;;;;4.10;82.96;99876.02;105553;1273;22664;-59
2022/02/23 02:47:51;;;;;;;5.60;0.80;;;;;;;4.14;83.14;99882.46;105554;1273;25273;-58
2022/02/23 02:50:24;;;;;;;4.20;0.70;;;;;;;4.16;83.19;99888.16;105638;1273;22547;-58
2022/02/23 02:52:55;;;;;;;4.30;0.80;;;;;;;4.18;83.20;99898.74;105637;1273;22542;-59
2022/02/23 02:55:27;;;;;;;3.20;0.60;;;;;;;4.19;83.43;99898.93;105571;1273;24331;-59
2022/02/23 02:57:59;;;;;;;3.00;0.70;;;;;;;4.21;83.36;99900.75;105615;1273;22570;-57
2022/02/23 03:00:31;;;;;;;4.60;0.80;;;;;;;4.23;83.84;99901.01;105656;1273;25453;-59
2022/02/23 03:03:05;;;;;;;2.50;0.60;;;;;;;4.25;84.05;99901.34;105747;1273;22534;-58
2022/02/23 03:05:37;;;;;;;2.50;0.80;;;;;;;4.29;84.17;99902.73;105551;1273;25382;-59
2022/02/23 03:08:09;;;;;;;2.70;0.60;;;;;;;4.32;84.30;99906.66;105557;1273;24298;-59
2022/02/23 03:10:40;;;;;;;3.40;0.60;;;;;;;4.35;84.30;99904.33;105568;1273;25541;-58
2022/02/23 03:13:12;;;;;;;3.20;0.60;;;;;;;4.37;84.24;99906.62;105655;1273;22643;-57
2022/02/23 03:15:46;;;;;;;2.60;0.80;;;;;;;4.39;84.34;99906.41;105814;1273;24243;-58
2022/02/23 03:18:18;;;;;;;1.40;0.50;;;;;;;4.42;84.71;99914.30;105559;1273;24336;-58
2022/02/23 03:20:49;;;;;;;6.10;0.70;;;;;;;4.44;84.91;99915.86;105635;1273;22574;-60
2022/02/23 03:23:20;;;;;;;3.40;0.80;;;;;;;4.47;84.81;99919.96;105511;1273;22562;-61
2022/02/23 03:25:52;;;;;;;3.40;0.60;;;;;;;4.49;85.04;99923.67;105605;1273;22722;-58
2022/02/23 03:28:24;;;;;;;3.90;0.60;;;;;;;4.53;85.16;99928.53;105583;1273;24318;-55
2022/02/23 03:30:55;;;;;;;4.20;0.70;;;;;;;4.56;84.95;99930.63;105673;1272;24248;-58
2022/02/23 03:33:27;;;;;;;3.30;0.80;;;;;;;4.61;84.99;99939.39;105520;1273;22547;-59
2022/02/23 03:36:00;;;;;;;4.40;1.00;;;;;;;4.66;85.23;99946.48;105543;1273;22624;-60
2022/02/23 03:38:31;;;;;;;4.60;1.00;;;;;;;4.72;85.20;99952.29;105678;1273;24299;-59
2022/02/23 03:41:03;;;;;;;7.40;1.20;;;;;;;4.77;85.81;99960.08;105701;1273;22609;-59
2022/02/23 03:43:34;;;;;;;9.70;0.90;;;;;;;4.87;85.63;99960.23;105518;1273;24276;-59
2022/02/23 03:46:06;;;;;;;7.70;1.00;;;;;;;4.97;85.18;99960.94;105637;1273;25247;-59
2022/02/23 03:48:38;;;;;;;8.40;1.00;;;;;;;5.04;85.06;99972.77;105663;1273;22549;-57
2022/02/23 03:51:10;;;;;;;6.40;0.90;;;;;;;5.12;84.87;99976.45;105514;1273;25443;-58
2022/02/23 03:53:43;;;;;;;7.70;1.00;;;;;;;5.17;84.46;99981.41;105684;1273;24224;-58
2022/02/23 03:59:08;;;;;;;10.00;0.70;;;;;;;5.21;83.62;99993.06;105694;1273;25470;-58
2022/02/23 04:01:41;;;;;;;4.80;0.60;;;;;;;5.19;83.54;99996.35;105634;1273;22707;-60
2022/02/23 04:04:13;;;;;;;7.40;0.70;;;;;;;5.20;83.19;100007.16;105797;1273;23932;-59
2022/02/23 04:06:45;;;;;;;8.60;0.70;;;;;;;5.22;82.64;100017.36;105733;1273;22560;-58
2022/02/23 04:09:18;;;;;;;7.50;0.70;;;;;;;5.25;82.16;100022.48;105643;1273;22553;-59
2022/02/23 04:11:50;;;;;;;11.60;0.90;;;;;;;5.27;81.84;100028.04;105576;1273;25503;-58
2022/02/23 04:14:22;;;;;;;10.40;1.00;;;;;;;5.27;81.32;100036.50;105576;1273;22566;-58
2022/02/23 04:16:54;;;;;;;16.90;1.40;;;;;;;5.27;80.86;100043.42;105620;1273;24293;-58
2022/02/23 04:19:26;;;;;;;12.10;1.00;;;;;;;5.28;80.89;100043.17;105579;1273;23124;-59
2022/02/23 04:21:57;;;;;;;7.50;0.60;;;;;;;5.26;80.72;100045.20;105547;1273;24239;-58
2022/02/23 04:24:28;;;;;;;14.30;1.30;;;;;;;5.26;80.50;100056.29;105449;1273;26540;-58
2022/02/23 04:27:00;;;;;;;9.20;1.00;;;;;;;5.25;80.26;100065.98;105501;1273;24296;-58
2022/02/23 04:29:32;;;;;;;13.50;0.90;;;;;;;5.24;80.22;100072.79;105574;1273;22574;-59
2022/02/23 04:32:04;;;;;;;12.90;0.90;;;;;;;5.23;80.02;100078.94;105548;1273;22563;-58
2022/02/23 04:34:36;;;;;;;7.90;0.80;;;;;;;5.23;79.82;100085.82;105582;1273;23020;-61
2022/02/23 04:37:08;;;;;;;9.20;0.80;;;;;;;5.22;79.51;100088.91;105550;1273;24914;-56
2022/02/23 04:39:39;;;;;;;14.30;1.10;;;;;;;5.23;79.34;100093.98;106212;1266;25360;-54
2022/02/23 04:42:10;;;;;;;13.90;1.30;;;;;;;5.22;79.61;100102.20;106013;1271;22665;-55
2022/02/23 04:44:41;;;;;;;15.30;1.50;;;;;;;5.21;79.82;100111.82;105793;1271;22545;-54
2022/02/23 04:47:14;;;;;;;14.10;1.60;;;;;;;5.20;79.73;100116.29;105775;1271;22627;-55
2022/02/23 04:49:45;;;;;;;14.40;1.50;;;;;;;5.18;79.52;100125.75;105884;1270;22569;-54
2022/02/23 04:52:16;;;;;;;11.50;1.20;;;;;;;5.18;79.39;100129.30;105783;1270;27595;-56
2022/02/23 04:54:46;;;;;;;18.40;1.50;;;;;;;5.17;79.14;100134.71;105782;1271;22542;-53
2022/02/23 04:57:17;;;;;;;10.70;1.50;;;;;;;5.16;78.48;100139.56;105758;1271;25029;-59
2022/02/23 04:59:49;;;;;;;15.90;1.20;;;;;;;5.15;77.79;100141.10;105714;1270;22892;-53
2022/02/23 05:02:21;;;;;;;13.40;1.20;;;;;;;5.14;77.28;100148.27;105637;1271;22558;-57
2022/02/23 05:04:52;;;;;;;14.20;1.40;;;;;;;5.13;76.63;100160.70;105585;1271;24225;-55
2022/02/23 05:07:24;;;;;;;12.20;1.40;;;;;;;5.13;76.95;100158.86;105755;1271;25321;-58
2022/02/23 05:09:56;;;;;;;14.60;1.20;;;;;;;5.12;77.08;100166.11;105720;1271;26333;-52
2022/02/23 05:12:28;;;;;;;18.70;1.30;;;;;;;5.09;77.18;100171.73;105746;1271;25256;-57
2022/02/23 05:15:00;;;;;;;15.20;1.30;;;;;;;5.07;77.09;100177.89;105898;1271;22591;-64
2022/02/23 05:17:31;;;;;;;20.40;1.40;;;;;;;5.06;77.28;100179.76;105711;1271;22571;-54
2022/02/23 05:20:04;;;;;;;12.70;1.70;;;;;;;5.05;76.99;100189.64;105787;1271;22613;-55
2022/02/23 05:22:35;;;;;;;9.90;0.90;;;;;;;5.05;77.05;100192.13;105700;1271;24460;-57
2022/02/23 05:25:09;;;;;;;18.10;1.80;;;;;;;5.03;76.65;100194.92;105837;1271;23266;-55
2022/02/23 05:27:40;;;;;;;13.40;1.40;;;;;;;5.01;76.77;100200.13;105883;1271;24431;-56
2022/02/23 05:30:13;;;;;;;16.10;1.40;;;;;;;4.99;76.51;100210.02;105918;1271;22535;-55
2022/02/23 05:32:45;;;;;;;20.30;2.00;;;;;;;4.98;76.23;100206.33;105753;1271;22588;-53
2022/02/23 05:35:16;;;;;;;15.60;1.10;;;;;;;4.96;76.49;100213.90;105731;1271;23736;-54
2022/02/23 05:37:48;;;;;;;8.90;1.10;;;;;;;4.92;76.26;100216.73;105831;1270;22554;-56
2022/02/23 05:40:20;;;;;;;18.90;1.40;;;;;;;4.91;76.19;100225.89;105956;1271;22541;-53
2022/02/23 05:42:53;;;;;;;13.70;2.00;;;;;;;4.90;76.35;100229.88;105661;1271;22727;-52
2022/02/23 05:45:25;;;;;;;13.80;1.00;;;;;;;4.90;76.54;100232.79;105654;1271;23101;-55
2022/02/23 05:47:56;;;;;;;14.20;1.20;;;;;;;4.89;76.46;100239.38;105599;1271;24292;-54
2022/02/23 05:50:28;;;;;;;10.40;1.20;;;;;;;4.89;76.42;100239.94;106677;1271;24679;-53
2022/02/23 05:52:59;;;;;;;19.80;2.30;;;;;;;4.89;76.32;100244.12;105999;1271;22629;-55
2022/02/23 05:55:32;;;;;;;11.30;1.10;;;;;;;4.88;76.23;100250.95;105521;1271;22537;-56
2022/02/23 05:58:03;;;;;;;19.50;1.50;;;;;;;4.88;76.24;100253.23;105761;1271;26575;-55
2022/02/23 06:00:34;;;;;;;19.10;1.10;;;;;;;4.87;76.38;100256.90;105788;1271;22581;-54
2022/02/23 06:03:10;;;;;;;11.30;1.30;;;;;;;4.84;76.26;100262.99;105793;1271;22547;-55
2022/02/23 06:05:41;;;;;;;13.50;1.20;;;;;;;4.81;76.41;100267.52;105651;1271;22557;-57
2022/02/23 06:08:12;;;;;;;19.30;1.50;;;;;;;4.77;76.27;100271.82;105426;1271;22553;-55
2022/02/23 06:10:43;;;;;;;11.60;1.20;;;;;;;4.73;76.29;100277.48;106029;1271;25422;-57
2022/02/23 06:13:14;;;;;;;19.80;1.50;;;;;;;4.68;76.28;100286.29;105759;1271;23007;-55
2022/02/23 06:15:45;;;;;;;17.60;1.60;;;;;;;4.65;76.39;100296.26;105817;1271;22589;-57
2022/02/23 06:18:16;;;;;;;10.60;1.10;;;;;;;4.63;76.52;100302.48;105897;1271;22537;-56
2022/02/23 06:20:47;;;;;;;13.60;1.40;;;;;;;4.61;76.33;100307.29;105548;1271;22530;-54
2022/02/23 06:23:19;;;;;;;14.20;1.20;;;;;;;4.60;76.28;100318.44;105662;1271;22537;-51
2022/02/23 06:25:51;;;;;;;16.80;1.20;;;;;;;4.58;76.34;100326.09;105494;1271;24374;-52
2022/02/23 06:28:22;;;;;;;14.90;1.90;;;;;;;4.56;76.30;100332.77;105551;1271;22556;-55
2022/02/23 06:30:53;;;;;;;21.20;1.50;;;;;;;4.58;76.23;100339.21;105652;1273;24130;-54
2022/02/23 06:33:25;;;;;;;11.90;1.10;;;;;;;4.60;76.24;100348.23;105866;1271;22553;-53
2022/02/23 06:35:56;;;;;;;15.80;1.20;;;;;;;4.62;76.07;100355.90;105557;1271;22543;-53
2022/02/23 06:38:28;;;;;;;12.90;1.70;;;;;;;4.67;76.00;100363.29;105675;1271;24418;-54
2022/02/23 06:41:01;;;;;;;22.30;2.40;;;;;;;4.69;76.01;100370.41;105509;1273;24298;-56
2022/02/23 06:43:32;;;;;;;20.50;1.70;;;;;;;4.71;75.91;100379.92;105621;1273;22716;-57
2022/02/23 06:46:04;;;;;;;14.40;1.10;;;;;;;4.72;76.00;100380.45;105732;1273;23154;-54
2022/02/23 06:48:36;;;;;;;15.30;1.30;;;;;;;4.72;75.93;100380.36;105621;1273;24313;-56
2022/02/23 06:51:08;;;;;;;17.30;1.50;;;;;;;4.70;75.98;100393.45;105626;1273;24419;-55
2022/02/23 06:53:40;;;;;;;15.00;1.30;;;;;;;4.68;75.79;100399.13;105720;1273;22547;-52
2022/02/23 06:56:12;;;;;;;21.30;1.60;;;;;;;4.66;75.98;100406.45;105602;1273;25253;-55
2022/02/23 06:58:49;;;;;;;19.80;1.60;;;;;;;4.65;75.88;100415.80;106047;1273;22611;-56
2022/02/23 07:01:22;;;;;;;17.80;1.30;;;;;;;4.68;75.98;100433.27;105613;1273;24318;-55
2022/02/23 07:03:54;;;;;;;19.60;1.20;;;;;;;4.71;75.92;100434.85;105652;1273;22570;-53
2022/02/23 07:06:25;;;;;;;18.20;1.70;;;;;;;4.72;75.78;100442.65;105838;1273;22547;-54
2022/02/23 07:08:56;;;;;;;14.40;1.60;;;;;;;4.74;75.74;100451.51;105620;1272;22728;-51
2022/02/23 07:11:28;;;;;;;26.90;2.40;;;;;;;4.80;75.97;100458.00;105823;1273;22559;-56
2022/02/23 07:14:02;;;;;;;15.80;1.20;;;;;;;4.86;76.10;100458.55;106002;1273;25405;-54
2022/02/23 07:16:33;;;;;;;12.60;1.30;;;;;;;4.89;75.67;100468.73;105746;1273;25401;-54
2022/02/23 07:19:05;;;;;;;16.70;2.30;;;;;;;4.89;75.36;100471.11;106071;1273;22553;-51
2022/02/23 07:21:38;;;;;;;7.90;0.70;;;;;;;4.90;75.57;100475.19;105865;1273;23854;-57
2022/02/23 07:24:10;;;;;;;15.30;1.50;;;;;;;4.95;75.31;100493.39;105768;1273;24215;-53
2022/02/23 07:26:41;;;;;;;14.30;1.30;;;;;;;5.02;75.34;100491.98;106085;1273;22583;-56
2022/02/23 07:29:13;;;;;;;18.00;1.60;;;;;;;5.07;75.34;100501.63;106442;1273;25362;-53
2022/02/23 07:31:46;;;;;;;20.00;1.60;;;;;;;5.10;75.17;100504.77;105791;1273;25309;-54
2022/02/23 07:34:18;;;;;;;15.30;1.80;;;;;;;5.13;75.32;100508.52;105799;1273;24311;-51
2022/02/23 07:36:49;;;;;;;18.90;2.20;;;;;;;5.15;75.31;100510.98;105755;1273;22557;-54
2022/02/23 07:39:21;;;;;;;14.60;1.60;;;;;;;5.16;75.27;100519.59;105750;1271;22550;-54
2022/02/23 07:41:52;;;;;;;13.30;1.60;;;;;;;5.16;74.96;100519.96;105736;1271;22544;-52
2022/02/23 07:44:25;;;;;;;17.40;1.70;;;;;;;5.18;75.06;100518.27;105974;1271;22628;-51
2022/02/23 07:46:57;;;;;;;14.30;1.60;;;;;;;5.21;75.05;100526.40;105886;1271;24934;-54
2022/02/23 07:49:31;;;;;;;15.40;1.30;;;;;;;5.24;74.96;100530.67;106169;1271;23869;-53
2022/02/23 07:52:03;;;;;;;19.80;1.90;;;;;;;5.27;74.90;100529.95;105933;1271;22553;-53
2022/02/23 07:54:34;;;;;;;13.50;0.90;;;;;;;5.31;75.12;100533.56;106007;1271;25637;-53
2022/02/23 07:57:06;;;;;;;22.00;1.60;;;;;;;5.35;74.78;100528.09;105966;1271;22544;-54
2022/02/23 07:59:37;;;;;;;17.20;1.50;;;;;;;5.37;74.86;100533.88;105904;1271;22554;-52
2022/02/23 08:02:09;;;;;;;13.30;1.20;;;;;;;5.40;75.02;100530.88;105974;1271;23308;-54
2022/02/23 08:04:40;;;;;;;21.10;2.30;;;;;;;5.42;75.39;100529.39;105886;1271;22897;-56
2022/02/23 08:07:12;;;;;;;18.00;2.00;;;;;;;5.42;75.42;100539.84;105973;1271;25433;-51
2022/02/23 08:09:43;;;;;;;15.50;1.90;;;;;;;5.44;75.46;100541.06;105992;1271;22629;-54
2022/02/23 08:12:15;;;;;;;14.40;1.30;;;;;;;5.48;75.33;100543.08;106024;1271;22597;-57
2022/02/23 08:14:47;;;;;;;21.50;1.60;;;;;;;5.55;75.33;100544.23;105843;1271;25413;-51
2022/02/23 08:20:10;;;;;;;19.20;1.60;;;;;;;5.67;74.88;100547.13;105893;1271;22558;-56
2022/02/23 08:22:41;;;;;;;16.50;2.10;;;;;;;5.71;74.87;100554.92;106112;1271;22996;-52
2022/02/23 08:25:13;;;;;;;10.00;1.30;;;;;;;5.75;74.77;100562.27;105835;1273;25397;-53
2022/02/23 08:27:44;;;;;;;14.90;1.60;;;;;;;5.78;74.61;100558.38;105893;1271;22670;-53
2022/02/23 08:30:16;;;;;;;23.50;1.80;;;;;;;5.81;74.19;100563.59;105920;1271;24338;-53
2022/02/23 08:32:48;;;;;;;16.00;2.10;;;;;;;5.87;74.26;100568.14;105930;1272;22639;-54
2022/02/23 08:35:20;;;;;;;20.20;2.00;;;;;;;5.95;74.40;100575.04;105848;1270;22544;-54
2022/02/23 08:37:51;;;;;;;17.00;2.60;;;;;;;6.00;73.82;100578.05;105825;1271;24221;-55
2022/02/23 08:40:23;;;;;;;16.20;1.90;;;;;;;6.01;73.22;100582.37;105655;1271;22542;-57
2022/02/23 08:42:55;;;;;;;18.10;2.30;;;;;;;6.01;73.29;100581.51;105784;1271;22722;-52
2022/02/23 08:45:27;;;;;;;19.10;1.60;;;;;;;6.02;72.93;100592.14;105786;1271;25538;-55
2022/02/23 08:47:58;;;;;;;13.90;1.40;;;;;;;6.03;72.51;100596.72;105881;1271;22700;-52
2022/02/23 08:50:30;;;;;;;19.20;1.30;;;;;;;6.05;71.27;100604.28;105796;1271;26613;-57
2022/02/23 08:53:02;;;;;;;16.10;1.60;;;;;;;6.07;72.01;100598.59;105828;1271;24287;-53
2022/02/23 08:55:34;;;;;;;18.30;1.60;;;;;;;6.10;71.21;100597.40;105856;1271;24429;-55
2022/02/23 08:58:05;;;;;;;11.10;1.00;;;;;;;6.13;70.91;100596.98;105964;1271;23055;-52
2022/02/23 09:00:36;;;;;;;13.40;1.20;;;;;;;6.17;70.92;100607.27;105848;1271;24371;-55
2022/02/23 09:03:08;;;;;;;15.20;1.00;;;;;;;6.21;70.73;100604.77;105746;1271;22602;-57
2022/02/23 09:05:39;;;;;;;13.20;1.50;;;;;;;6.25;70.33;100610.96;105874;1271;22875;-54
2022/02/23 09:08:10;;;;;;;14.70;1.10;;;;;;;6.29;70.54;100618.94;105934;1273;22541;-56
2022/02/23 09:10:42;;;;;;;12.80;1.20;;;;;;;6.33;69.30;100618.90;105814;1273;22553;-54
2022/02/23 09:13:13;;;;;;;15.80;1.60;;;;;;;6.36;69.41;100620.63;105888;1272;22572;-53
2022/02/23 09:15:45;;;;;;;11.30;1.50;;;;;;;6.41;69.37;100626.19;105827;1273;26491;-57
2022/02/23 09:18:17;;;;;;;16.20;1.20;;;;;;;6.45;69.18;100628.63;105825;1272;25222;-52
2022/02/23 09:20:48;;;;;;;17.30;1.30;;;;;;;6.48;68.84;100634.39;105768;1271;23015;-56
2022/02/23 09:23:21;;;;;;;17.10;1.20;;;;;;;6.50;68.72;100646.13;105828;1273;22653;-54
2022/02/23 09:25:53;;;;;;;15.40;1.10;;;;;;;6.51;68.18;100642.30;105933;1271;22700;-52
2022/02/23 09:28:25;;;;;;;8.20;1.10;;;;;;;6.52;67.64;100645.17;105866;1271;22705;-53
2022/02/23 09:30:56;;;;;;;15.00;1.10;;;;;;;6.55;68.02;100647.48;105751;1273;26716;-57
2022/02/23 09:33:28;;;;;;;14.10;1.20;;;;;;;6.57;67.97;100650.69;105796;1272;27582;-56
2022/02/23 09:36:02;;;;;;;9.50;1.10;;;;;;;6.61;67.16;100654.27;105947;1272;25379;-52
2022/02/23 09:38:35;;;;;;;10.40;1.10;;;;;;;6.64;67.58;100653.48;105661;1271;22556;-52
2022/02/23 09:41:09;;;;;;;13.70;1.20;;;;;;;6.68;66.92;100662.77;105873;1271;23327;-56
2022/02/23 09:43:41;;;;;;;16.60;1.50;;;;;;;6.72;66.43;100660.70;105737;1273;22552;-56
2022/02/23 09:46:18;;;;;;;9.60;0.90;;;;;;;6.75;66.79;100666.23;105777;1271;26596;-54
2022/02/23 09:48:50;;;;;;;11.20;0.80;;;;;;;6.80;66.88;100668.75;105748;1272;25316;-55
2022/02/23 09:51:22;;;;;;;16.70;1.60;;;;;;;6.86;66.38;100668.35;105722;1273;22586;-57
2022/02/23 09:53:55;;;;;;;11.90;1.40;;;;;;;6.88;65.76;100669.63;105720;1271;22712;-57
2022/02/23 09:56:59;;;;;;;10.70;1.00;;;;;;;6.89;65.87;100669.89;105840;1272;25246;-55
2022/02/23 09:59:30;;;;;;;14.30;1.90;;;;;;;6.89;65.34;100670.07;105828;1272;22684;-57
2022/02/23 10:02:03;;;;;;;18.50;1.30;;;;;;;6.90;65.55;100673.29;105749;1271;24889;-58
2022/02/23 10:04:35;;;;;;;8.90;0.90;;;;;;;6.89;64.79;100670.23;106027;1271;22550;-54
2022/02/23 10:07:08;;;;;;;12.80;2.00;;;;;;;6.89;65.14;100673.45;105923;1271;22553;-56
2022/02/23 10:09:47;;;;;;;13.70;1.20;;;;;;;6.97;65.13;100672.89;105780;1271;25341;-55
2022/02/23 10:12:24;;;;;;;14.90;2.00;;;;;;;7.07;64.98;100667.17;105873;1273;25669;-52
2022/02/23 10:15:06;;;;;;;19.90;1.50;;;;;;;7.15;64.91;100670.73;105952;1271;22637;-53
2022/02/23 10:17:44;;;;;;;15.10;1.00;;;;;;;7.20;64.20;100669.25;105760;1271;25312;-56
2022/02/23 10:20:28;;;;;;;13.10;1.00;;;;;;;7.24;64.63;100676.16;105956;1270;22540;-56
2022/02/23 10:23:03;;;;;;;6.30;1.00;;;;;;;7.30;63.53;100679.93;105915;1271;24313;-52
2022/02/23 10:25:36;;;;;;;15.70;1.70;;;;;;;7.33;63.68;100684.70;105878;1272;22608;-56
2022/02/23 10:28:12;;;;;;;10.80;1.10;;;;;;;7.35;63.92;100690.48;105814;1271;26621;-54
2022/02/23 10:30:52;;;;;;;10.80;1.00;;;;;;;7.37;63.20;100689.30;105827;1271;22566;-54
2022/02/23 10:33:26;;;;;;;12.30;1.10;;;;;;;7.35;62.31;100693.02;105902;1271;24381;-51
2022/02/23 10:36:00;;;;;;;8.30;1.30;;;;;;;7.30;62.78;100691.36;105794;1271;22719;-55
2022/02/23 10:38:33;;;;;;;9.50;0.80;;;;;;;7.30;62.11;100688.27;105931;1271;22796;-54
2022/02/23 10:41:07;;;;;;;9.50;1.00;;;;;;;7.32;62.18;100693.98;105819;1271;25054;-55
2022/02/23 10:43:41;;;;;;;15.80;1.00;;;;;;;7.44;62.28;100702.50;105807;1272;22536;-55
2022/02/23 10:46:15;;;;;;;11.30;1.20;;;;;;;7.60;61.56;100694.83;106057;1271;24263;-54
2022/02/23 10:48:50;;;;;;;15.30;1.20;;;;;;;7.69;61.07;100703.87;105943;1271;22568;-55
2022/02/23 10:51:27;;;;;;;11.90;1.20;;;;;;;7.75;60.44;100719.65;105739;1273;22577;-55
2022/02/23 10:54:05;;;;;;;8.80;1.10;;;;;;;7.75;59.49;100716.38;105959;1271;24098;-54
2022/02/23 10:56:37;;;;;;;13.30;1.10;;;;;;;7.76;60.49;100712.46;105729;1271;25330;-56
2022/02/23 10:59:11;;;;;;;7.60;0.80;;;;;;;7.86;60.66;100714.41;105807;1273;26895;-56
2022/02/23 11:01:44;;;;;;;10.90;0.80;;;;;;;7.96;59.89;100718.04;105933;1271;25326;-52
2022/02/23 11:04:15;;;;;;;9.80;0.80;;;;;;;8.02;58.65;100721.58;105892;1272;22532;-54
2022/02/23 11:06:48;;;;;;;8.20;0.90;;;;;;;8.00;58.41;100725.52;105894;1273;25671;-55
2022/02/23 11:09:19;;;;;;;15.00;1.30;;;;;;;8.00;58.66;100720.69;106322;1261;22626;-60
2022/02/23 11:11:51;;;;;;;8.40;0.80;;;;;;;7.99;57.99;100732.15;105636;1273;22659;-59
2022/02/23 11:14:24;;;;;;;8.50;0.80;;;;;;;8.05;58.07;100726.38;105744;1273;22565;-58
2022/02/23 11:16:56;;;;;;;8.70;0.80;;;;;;;8.09;58.96;100728.80;105712;1273;22692;-60
2022/02/23 11:19:30;;;;;;;10.40;0.90;;;;;;;8.17;58.75;100733.10;105708;1273;22575;-59
2022/02/23 11:22:04;;;;;;;17.90;1.50;;;;;;;8.26;58.54;100748.71;105632;1273;24256;-60
2022/02/23 11:24:36;;;;;;;15.40;1.10;;;;;;;8.30;57.73;100742.19;105673;1273;22550;-60
2022/02/23 11:27:13;;;;;;;9.60;1.20;;;;;;;8.29;58.26;100742.83;105708;1273;22553;-59
2022/02/23 11:29:55;;;;;;;11.00;1.10;;;;;;;8.26;57.48;100750.00;105660;1273;22567;-59
2022/02/23 11:32:33;;;;;;;8.90;0.70;;;;;;;8.22;57.05;100748.43;105739;1273;22698;-59
2022/02/23 11:35:07;;;;;;;7.00;1.00;;;;;;;8.20;56.83;100750.98;105757;1273;25447;-58
2022/02/23 11:37:38;;;;;;;13.20;1.40;;;;;;;8.14;56.57;100757.95;105715;1273;25366;-60
2022/02/23 11:40:11;;;;;;;13.80;1.00;;;;;;;8.08;56.76;100753.70;105498;1273;24402;-59
2022/02/23 11:42:45;;;;;;;9.40;0.90;;;;;;;8.02;56.53;100753.66;105573;1273;22546;-58
2022/02/23 11:48:33;;;;;;;16.30;1.00;;;;;;;7.98;56.64;100757.77;105873;1273;24257;-59
2022/02/23 11:53:59;;;;;;;12.90;0.90;;;;;;;7.95;56.64;100767.50;105789;1273;24354;-63
2022/02/23 11:56:49;;;;;;;5.60;0.70;;;;;;;7.93;57.42;100765.08;105694;1273;24432;-59